Time;durP1;ratioP1;P1;durP2;ratioP2;P2;SDS_P1;SDS_P2;PMS_P1;PMS_P2;Temp;Humidity;BMP_temperature;BMP_pressure;BME280_temperature;BME280_humidity;BME280_pressure;Samples;Min_cycle;Max_cycle;Signal;HPM_P1;HPM_P2
2023/12/09 00:01:26;;;;;;;;;;;9.70;93.10;;;;;;5093740;28;20299;-78
2023/12/09 00:03:52;;;;;;;;;;;9.70;93.10;;;;;;5093641;28;19908;-79
2023/12/09 00:06:18;;;;;;;;;;;9.70;93.10;;;;;;5111556;28;19904;-78
2023/12/09 00:08:43;;;;;;;;;;;9.80;93.20;;;;;;5111948;28;19908;-78
2023/12/09 00:11:09;;;;;;;;;;;9.80;93.10;;;;;;5111869;28;19973;-78
2023/12/09 00:13:35;;;;;;;;;;;9.80;93.10;;;;;;5111666;28;20412;-78
2023/12/09 00:16:00;;;;;;;;;;;9.90;93.10;;;;;;5111785;28;19926;-78
2023/12/09 00:18:26;;;;;;;;;;;9.90;93.10;;;;;;5111817;28;19908;-78
2023/12/09 00:20:51;;;;;;;;;;;9.90;93.10;;;;;;5111482;28;19907;-78
2023/12/09 00:23:17;;;;;;;;;;;10.00;93.20;;;;;;5093609;28;19903;-78
2023/12/09 00:25:43;;;;;;;;;;;10.00;93.20;;;;;;5093345;28;20000;-78
2023/12/09 00:28:08;;;;;;;;;;;10.00;93.20;;;;;;5115615;28;19908;-78
2023/12/09 00:30:34;;;;;;;;;;;10.10;93.20;;;;;;5116146;28;19911;-78
2023/12/09 00:33:00;;;;;;;;;;;10.20;93.30;;;;;;5097912;28;20367;-79
2023/12/09 00:35:25;;;;;;;;;;;10.20;93.30;;;;;;5097563;28;20021;-78
2023/12/09 00:37:51;;;;;;;;;;;10.30;93.20;;;;;;5116461;28;20034;-78
2023/12/09 00:40:17;;;;;;;;;;;10.40;93.20;;;;;;5115986;28;19908;-78
2023/12/09 00:42:42;;;;;;;;;;;10.40;93.20;;;;;;5115963;28;20418;-79
2023/12/09 00:45:08;;;;;;;;;;;10.50;93.20;;;;;;5115905;28;19912;-78
2023/12/09 00:47:34;;;;;;;;;;;10.50;93.20;;;;;;5115828;28;19908;-78
2023/12/09 00:50:00;;;;;;;;;;;10.60;93.10;;;;;;5097571;28;20067;-78
2023/12/09 00:52:25;;;;;;;;;;;10.60;93.10;;;;;;5097346;28;19914;-78
2023/12/09 00:54:51;;;;;;;;;;;10.70;93.10;;;;;;5115745;28;19937;-78
2023/12/09 00:57:16;;;;;;;;;;;10.70;93.10;;;;;;5097484;28;20010;-78
2023/12/09 00:59:42;;;;;;;;;;;10.80;93.20;;;;;;5115581;28;19911;-78
2023/12/09 01:02:07;;;;;;;;;;;10.80;93.20;;;;;;5115611;28;19915;-78
2023/12/09 01:04:33;;;;;;;;;;;10.80;93.30;;;;;;5097154;28;19985;-78
2023/12/09 01:06:59;;;;;;;;;;;10.80;93.10;;;;;;5115384;28;19935;-77
2023/12/09 01:09:24;;;;;;;;;;;10.90;93.10;;;;;;5096841;28;19905;-77
2023/12/09 01:11:50;;;;;;;;;;;10.90;93.10;;;;;;5097034;28;19914;-78
2023/12/09 01:14:15;;;;;;;;;;;10.90;93.10;;;;;;5115010;28;19915;-77
2023/12/09 01:16:41;;;;;;;;;;;10.90;93.10;;;;;;5096789;28;19972;-77
2023/12/09 01:19:07;;;;;;;;;;;10.90;93.10;;;;;;5115219;28;19908;-78
2023/12/09 01:21:32;;;;;;;;;;;10.90;93.10;;;;;;5079993;28;20141;-78
2023/12/09 01:23:58;;;;;;;;;;;10.90;93.10;;;;;;5096759;28;19912;-77
2023/12/09 01:26:24;;;;;;;;;;;10.80;93.10;;;;;;5114928;28;19955;-78
2023/12/09 01:28:49;;;;;;;;;;;10.80;93.10;;;;;;5115254;28;19908;-77
2023/12/09 01:31:15;;;;;;;;;;;10.70;93.10;;;;;;5079820;28;20329;-77
2023/12/09 01:33:41;;;;;;;;;;;10.70;93.10;;;;;;5114708;28;20395;-78
2023/12/09 01:36:07;;;;;;;;;;;10.60;93.20;;;;;;5114884;28;19903;-78
2023/12/09 01:38:32;;;;;;;;;;;10.70;93.20;;;;;;5114096;28;19911;-78
2023/12/09 01:40:58;;;;;;;;;;;10.70;93.40;;;;;;5114983;28;19908;-78
2023/12/09 01:43:23;;;;;;;;;;;10.70;93.20;;;;;;5096389;28;19956;-78
2023/12/09 01:45:51;;;;;;;;;;;10.70;93.20;;;;;;5114640;28;19908;-78
2023/12/09 01:48:17;;;;;;;;;;;10.70;93.20;;;;;;5114610;28;20363;-78
2023/12/09 01:50:43;;;;;;;;;;;10.60;93.10;;;;;;5096527;28;19918;-78
2023/12/09 01:53:08;;;;;;;;;;;10.60;93.20;;;;;;5096152;28;20275;-78
2023/12/09 01:55:34;;;;;;;;;;;10.60;93.20;;;;;;5079269;28;20175;-78
2023/12/09 01:58:00;;;;;;;;;;;10.50;93.20;;;;;;5114509;28;19904;-78
2023/12/09 02:00:25;;;;;;;;;;;10.50;93.20;;;;;;5114486;28;19908;-78
2023/12/09 02:02:51;;;;;;;;;;;10.50;93.20;;;;;;5114424;28;19911;-78
2023/12/09 02:05:17;;;;;;;;;;;10.40;93.20;;;;;;5114351;28;19938;-78
2023/12/09 02:07:43;;;;;;;;;;;10.40;93.20;;;;;;5114407;28;20359;-78
2023/12/09 02:10:10;;;;;;;;;;;10.40;93.30;;;;;;5095810;28;19907;-78
2023/12/09 02:12:51;;;;;;;;;;;10.40;93.30;;;;;;5095657;28;20317;-79
2023/12/09 02:15:22;;;;;;;;;;;10.40;93.30;;;;;;5113960;28;20371;-78
2023/12/09 02:17:59;;;;;;;;;;;10.40;93.30;;;;;;5114487;28;19998;-78
2023/12/09 02:20:26;;;;;;;;;;;10.50;93.30;;;;;;5114108;28;19911;-79
2023/12/09 02:23:03;;;;;;;;;;;10.50;93.30;;;;;;5113938;28;19903;-78
2023/12/09 02:25:28;;;;;;;;;;;10.50;93.30;;;;;;5113638;28;20004;-78
2023/12/09 02:27:57;;;;;;;;;;;10.50;93.30;;;;;;5095476;28;19911;-78
2023/12/09 02:30:28;;;;;;;;;;;10.50;93.30;;;;;;5113958;28;19916;-78
2023/12/09 02:32:55;;;;;;;;;;;10.50;93.30;;;;;;5113788;28;19965;-78
2023/12/09 02:35:22;;;;;;;;;;;10.50;93.30;;;;;;5113489;28;19918;-78
2023/12/09 02:37:49;;;;;;;;;;;10.50;93.30;;;;;;5095344;28;20335;-78
2023/12/09 02:40:17;;;;;;;;;;;10.50;93.30;;;;;;5113557;28;19908;-78
2023/12/09 02:42:43;;;;;;;;;;;10.50;93.30;;;;;;5095162;28;19908;-78
2023/12/09 02:45:09;;;;;;;;;;;10.50;93.30;;;;;;5095081;28;19915;-78
2023/12/09 02:47:34;;;;;;;;;;;10.50;93.30;;;;;;5095314;28;19912;-78
2023/12/09 02:50:00;;;;;;;;;;;10.50;93.30;;;;;;5094219;28;20282;-78
2023/12/09 02:52:26;;;;;;;;;;;10.60;93.30;;;;;;5113802;28;19903;-78
2023/12/09 02:54:51;;;;;;;;;;;10.50;93.30;;;;;;5113348;28;19916;-78
2023/12/09 02:57:17;;;;;;;;;;;10.50;93.20;;;;;;5113381;28;19951;-78
2023/12/09 02:59:43;;;;;;;;;;;10.50;93.20;;;;;;5113314;28;20383;-78
2023/12/09 03:02:09;;;;;;;;;;;10.50;93.20;;;;;;5113508;28;19907;-78
2023/12/09 03:04:34;;;;;;;;;;;10.40;93.20;;;;;;5094994;28;20444;-78
2023/12/09 03:07:00;;;;;;;;;;;10.40;93.20;;;;;;5094727;28;20010;-78
2023/12/09 03:09:25;;;;;;;;;;;10.40;93.20;;;;;;5113144;28;19914;-78
2023/12/09 03:11:51;;;;;;;;;;;10.40;93.20;;;;;;5113044;28;19934;-78
2023/12/09 03:14:16;;;;;;;;;;;10.40;93.20;;;;;;5112843;28;19912;-78
2023/12/09 03:16:42;;;;;;;;;;;10.40;93.20;;;;;;5112848;28;19950;-78
2023/12/09 03:19:08;;;;;;;;;;;10.40;93.20;;;;;;5112902;28;20293;-78
2023/12/09 03:21:33;;;;;;;;;;;10.30;93.20;;;;;;5112919;28;19915;-78
2023/12/09 03:23:59;;;;;;;;;;;10.20;93.20;;;;;;5094735;28;20406;-78
2023/12/09 03:26:25;;;;;;;;;;;10.10;93.30;;;;;;5112478;28;19951;-78
2023/12/09 03:28:51;;;;;;;;;;;10.10;93.40;;;;;;5112840;28;19949;-78
2023/12/09 03:31:17;;;;;;;;;;;10.10;93.40;;;;;;5112870;28;20415;-78
2023/12/09 03:33:43;;;;;;;;;;;10.10;93.40;;;;;;5094409;28;20023;-78
2023/12/09 03:36:09;;;;;;;;;;;10.10;93.40;;;;;;5112562;28;19907;-78
2023/12/09 03:38:35;;;;;;;;;;;10.10;93.40;;;;;;5112538;28;19907;-78
2023/12/09 03:41:04;;;;;;;;;;;10.10;93.50;;;;;;5112559;28;19930;-78
2023/12/09 03:43:30;;;;;;;;;;;10.10;93.40;;;;;;5112767;28;19908;-78
2023/12/09 03:45:56;;;;;;;;;;;10.10;93.50;;;;;;5112544;28;19951;-78
2023/12/09 03:48:22;;;;;;;;;;;10.10;93.50;;;;;;5112484;28;19996;-78
2023/12/09 03:50:47;;;;;;;;;;;10.10;93.50;;;;;;5112584;28;20377;-78
2023/12/09 03:53:13;;;;;;;;;;;10.10;93.50;;;;;;5094108;28;19912;-78
2023/12/09 03:55:39;;;;;;;;;;;10.10;93.50;;;;;;5093785;28;19911;-78
2023/12/09 03:58:05;;;;;;;;;;;10.10;93.50;;;;;;5094196;28;20010;-78
2023/12/09 04:00:31;;;;;;;;;;;10.10;93.50;;;;;;5094003;28;19907;-78
2023/12/09 04:02:57;;;;;;;;;;;10.10;93.50;;;;;;5112058;28;19918;-78
2023/12/09 04:05:22;;;;;;;;;;;10.10;93.50;;;;;;5112207;28;20359;-78
2023/12/09 04:07:48;;;;;;;;;;;10.10;93.50;;;;;;5094035;28;19912;-77
2023/12/09 04:10:13;;;;;;;;;;;10.10;93.50;;;;;;5112213;28;20320;-77
2023/12/09 04:12:40;;;;;;;;;;;10.10;93.50;;;;;;5093734;28;19976;-78
2023/12/09 04:15:06;;;;;;;;;;;10.10;93.50;;;;;;5111810;28;20360;-77
2023/12/09 04:17:32;;;;;;;;;;;10.10;93.40;;;;;;5112209;28;19904;-77
2023/12/09 04:19:57;;;;;;;;;;;10.10;93.40;;;;;;5112093;28;20683;-77
2023/12/09 04:22:23;;;;;;;;;;;10.10;93.40;;;;;;5093559;28;20275;-78
2023/12/09 04:24:49;;;;;;;;;;;10.10;93.70;;;;;;5111625;28;20385;-77
2023/12/09 04:27:14;;;;;;;;;;;10.10;93.50;;;;;;5111900;28;20037;-77
2023/12/09 04:29:40;;;;;;;;;;;10.10;93.60;;;;;;5111865;28;19931;-77
2023/12/09 04:32:05;;;;;;;;;;;10.10;93.50;;;;;;5093727;28;19908;-76
2023/12/09 04:34:31;;;;;;;;;;;10.10;93.50;;;;;;5093476;28;19916;-77
2023/12/09 04:36:56;;;;;;;;;;;10.10;93.60;;;;;;5093607;28;19914;-77
2023/12/09 04:39:22;;;;;;;;;;;10.10;93.70;;;;;;5111754;28;20360;-77
2023/12/09 04:41:48;;;;;;;;;;;10.20;93.60;;;;;;5111939;28;19904;-77
2023/12/09 04:44:13;;;;;;;;;;;10.30;93.60;;;;;;5093473;28;20279;-77
2023/12/09 04:46:39;;;;;;;;;;;10.40;93.60;;;;;;5093556;28;19998;-77
2023/12/09 04:49:04;;;;;;;;;;;10.40;93.60;;;;;;5111768;28;20279;-78
2023/12/09 04:51:30;;;;;;;;;;;10.40;93.60;;;;;;5111655;28;19908;-77
2023/12/09 04:53:56;;;;;;;;;;;10.40;93.60;;;;;;5076416;28;19999;-77
2023/12/09 04:56:22;;;;;;;;;;;10.50;93.60;;;;;;5076445;28;20359;-77
2023/12/09 04:58:47;;;;;;;;;;;10.50;93.50;;;;;;5111713;28;19951;-77
2023/12/09 05:01:13;;;;;;;;;;;10.50;93.60;;;;;;5111597;28;20296;-77
2023/12/09 05:03:38;;;;;;;;;;;10.60;93.60;;;;;;5111656;28;19916;-77
2023/12/09 05:06:04;;;;;;;;;;;10.60;93.50;;;;;;5093205;28;19914;-77
2023/12/09 05:08:30;;;;;;;;;;;10.60;93.50;;;;;;5076319;28;19915;-77
2023/12/09 05:10:55;;;;;;;;;;;10.50;93.50;;;;;;5093413;28;19950;-77
2023/12/09 05:13:21;;;;;;;;;;;10.60;93.60;;;;;;5111978;28;19907;-77
2023/12/09 05:15:48;;;;;;;;;;;10.60;93.60;;;;;;5115043;28;19970;-77
2023/12/09 05:18:14;;;;;;;;;;;10.60;93.60;;;;;;5115124;28;19946;-76
2023/12/09 05:20:39;;;;;;;;;;;10.70;93.80;;;;;;5097018;28;20328;-77
2023/12/09 05:23:06;;;;;;;;;;;10.80;93.80;;;;;;5115070;28;19951;-77
2023/12/09 05:25:32;;;;;;;;;;;10.90;93.70;;;;;;5079873;28;19924;-77
2023/12/09 05:27:57;;;;;;;;;;;11.00;93.70;;;;;;5115128;28;20347;-76
2023/12/09 05:30:23;;;;;;;;;;;11.00;93.60;;;;;;5115059;28;20010;-77
2023/12/09 05:32:49;;;;;;;;;;;11.10;93.60;;;;;;5115006;28;19952;-77
2023/12/09 05:35:14;;;;;;;;;;;11.10;93.60;;;;;;5114829;28;19965;-77
2023/12/09 05:37:40;;;;;;;;;;;11.10;93.60;;;;;;5096937;28;19908;-77
2023/12/09 05:40:06;;;;;;;;;;;11.10;93.60;;;;;;5096569;28;20401;-77
2023/12/09 05:42:32;;;;;;;;;;;11.10;93.60;;;;;;5096575;28;19908;-76
2023/12/09 05:44:58;;;;;;;;;;;11.20;93.60;;;;;;5114538;28;20374;-77
2023/12/09 05:47:24;;;;;;;;;;;11.20;93.60;;;;;;5114696;28;19915;-77
2023/12/09 05:49:50;;;;;;;;;;;11.20;93.60;;;;;;5096434;28;19907;-77
2023/12/09 05:52:16;;;;;;;;;;;11.20;93.60;;;;;;5114626;28;19908;-77
2023/12/09 05:54:42;;;;;;;;;;;11.30;93.60;;;;;;5114425;28;19965;-77
2023/12/09 05:57:07;;;;;;;;;;;11.30;93.60;;;;;;5114600;28;19955;-77
2023/12/09 05:59:33;;;;;;;;;;;11.30;93.70;;;;;;5114523;28;19923;-77
2023/12/09 06:01:58;;;;;;;;;;;11.40;93.70;;;;;;5096115;28;20010;-77
2023/12/09 06:04:24;;;;;;;;;;;11.40;93.70;;;;;;5114359;28;20002;-77
2023/12/09 06:06:49;;;;;;;;;;;11.50;93.70;;;;;;5114147;28;19908;-77
2023/12/09 06:09:15;;;;;;;;;;;11.60;93.80;;;;;;5095917;28;19915;-77
2023/12/09 06:11:40;;;;;;;;;;;11.60;93.80;;;;;;5096004;28;20204;-77
2023/12/09 06:14:07;;;;;;;;;;;11.70;93.80;;;;;;5114196;28;19923;-77
2023/12/09 06:16:32;;;;;;;;;;;11.70;93.80;;;;;;5095778;28;19995;-77
2023/12/09 06:18:58;;;;;;;;;;;11.80;93.80;;;;;;5095752;28;20437;-77
2023/12/09 06:21:24;;;;;;;;;;;11.80;93.80;;;;;;5095730;28;19914;-77
2023/12/09 06:23:50;;;;;;;;;;;11.90;93.80;;;;;;5095897;28;19914;-77
2023/12/09 06:26:16;;;;;;;;;;;11.90;93.80;;;;;;5113541;28;19916;-75
2023/12/09 06:28:41;;;;;;;;;;;12.00;93.90;;;;;;5095754;28;19912;-77
2023/12/09 06:31:07;;;;;;;;;;;12.00;93.80;;;;;;5095707;28;19911;-77
2023/12/09 06:33:33;;;;;;;;;;;12.00;93.80;;;;;;5095545;28;19960;-77
2023/12/09 06:35:58;;;;;;;;;;;12.10;93.90;;;;;;5113607;28;20393;-77
2023/12/09 06:38:25;;;;;;;;;;;12.10;93.90;;;;;;5113851;28;19931;-77
2023/12/09 06:40:51;;;;;;;;;;;12.20;93.90;;;;;;5095490;28;20022;-77
2023/12/09 06:43:16;;;;;;;;;;;12.10;93.90;;;;;;5095260;28;20012;-77
2023/12/09 06:45:42;;;;;;;;;;;12.20;93.90;;;;;;5113484;28;19911;-77
2023/12/09 06:48:08;;;;;;;;;;;12.20;93.90;;;;;;5113387;28;19908;-77
2023/12/09 06:50:33;;;;;;;;;;;12.30;93.90;;;;;;5113437;28;19957;-76
2023/12/09 06:52:59;;;;;;;;;;;12.20;93.90;;;;;;5113390;28;19919;-76
2023/12/09 06:55:25;;;;;;;;;;;12.30;93.90;;;;;;5113244;28;19935;-77
2023/12/09 06:57:50;;;;;;;;;;;12.30;93.90;;;;;;5078173;28;20431;-77
2023/12/09 07:00:16;;;;;;;;;;;12.30;93.90;;;;;;5094903;28;20317;-77
2023/12/09 07:02:42;;;;;;;;;;;12.30;93.90;;;;;;5113162;28;20153;-77
2023/12/09 07:05:11;;;;;;;;;;;12.30;93.90;;;;;;5113046;28;19990;-77
2023/12/09 07:07:36;;;;;;;;;;;12.30;93.90;;;;;;5094837;28;19904;-77
2023/12/09 07:10:05;;;;;;;;;;;12.30;93.90;;;;;;5094754;28;20073;-77
2023/12/09 07:12:31;;;;;;;;;;;12.30;93.90;;;;;;5113029;28;20351;-77
2023/12/09 07:14:59;;;;;;;;;;;12.20;93.90;;;;;;5094617;28;19907;-77
2023/12/09 07:17:25;;;;;;;;;;;12.30;94.00;;;;;;5094660;28;19999;-77
2023/12/09 07:19:52;;;;;;;;;;;12.20;94.00;;;;;;5112911;28;19943;-77
2023/12/09 07:22:21;;;;;;;;;;;12.30;94.00;;;;;;5112906;28;19908;-77
2023/12/09 07:24:47;;;;;;;;;;;12.30;94.00;;;;;;5094195;28;19962;-77
2023/12/09 07:27:12;;;;;;;;;;;12.30;94.00;;;;;;5112780;28;19954;-77
2023/12/09 07:29:38;;;;;;;;;;;12.30;94.00;;;;;;5112595;28;19911;-78
2023/12/09 07:32:04;;;;;;;;;;;12.30;94.00;;;;;;5112707;28;20011;-77
2023/12/09 07:34:30;;;;;;;;;;;12.40;94.10;;;;;;5077330;28;20294;-77
2023/12/09 07:36:56;;;;;;;;;;;12.40;94.00;;;;;;5111777;28;19908;-77
2023/12/09 07:39:21;;;;;;;;;;;12.50;94.10;;;;;;5112888;28;19912;-77
2023/12/09 07:41:50;;;;;;;;;;;12.50;94.00;;;;;;5094170;28;19911;-77
2023/12/09 07:44:17;;;;;;;;;;;12.40;94.00;;;;;;5112536;28;20407;-77
2023/12/09 07:46:42;;;;;;;;;;;12.40;94.00;;;;;;5112061;28;20326;-77
2023/12/09 07:49:08;;;;;;;;;;;12.30;93.90;;;;;;5112287;28;19912;-77
2023/12/09 07:51:33;;;;;;;;;;;12.20;93.90;;;;;;5112470;28;19972;-77
2023/12/09 07:53:59;;;;;;;;;;;12.10;93.90;;;;;;5112274;28;19912;-77
2023/12/09 07:56:25;;;;;;;;;;;12.10;94.00;;;;;;5112173;28;19903;-77
2023/12/09 07:58:50;;;;;;;;;;;12.10;94.10;;;;;;5112082;28;19911;-77
2023/12/09 08:01:16;;;;;;;;;;;12.10;94.10;;;;;;5112212;28;19960;-77
2023/12/09 08:03:41;;;;;;;;;;;12.00;94.00;;;;;;5093809;28;19908;-77
2023/12/09 08:06:07;;;;;;;;;;;12.00;94.30;;;;;;5112230;28;19911;-77
2023/12/09 08:08:33;;;;;;;;;;;12.00;94.00;;;;;;5094002;28;19970;-77
2023/12/09 08:11:01;;;;;;;;;;;12.00;94.00;;;;;;5093689;28;19951;-78
2023/12/09 08:13:26;;;;;;;;;;;12.00;94.00;;;;;;5077191;28;19908;-78
2023/12/09 08:15:52;;;;;;;;;;;12.00;94.00;;;;;;5111600;28;19912;-77
2023/12/09 08:18:17;;;;;;;;;;;12.00;94.00;;;;;;5111907;28;20419;-77
2023/12/09 08:20:43;;;;;;;;;;;11.90;93.90;;;;;;5111769;28;19953;-77
2023/12/09 08:23:08;;;;;;;;;;;11.90;93.90;;;;;;5111886;28;19914;-77
2023/12/09 08:25:34;;;;;;;;;;;11.80;93.90;;;;;;5076435;28;19932;-76
2023/12/09 08:28:00;;;;;;;;;;;11.80;93.90;;;;;;5111560;28;20350;-77
2023/12/09 08:30:25;;;;;;;;;;;11.70;93.90;;;;;;5111600;28;19943;-77
2023/12/09 08:32:51;;;;;;;;;;;11.70;94.00;;;;;;5111745;28;20394;-76
2023/12/09 08:35:16;;;;;;;;;;;11.70;94.00;;;;;;5111518;28;19912;-77
2023/12/09 08:37:42;;;;;;;;;;;11.70;93.90;;;;;;5111523;28;19904;-76
2023/12/09 08:40:10;;;;;;;;;;;11.70;93.90;;;;;;5111589;28;19912;-78
2023/12/09 08:42:36;;;;;;;;;;;11.70;93.90;;;;;;5111632;28;19982;-77
2023/12/09 08:45:02;;;;;;;;;;;11.60;93.90;;;;;;5111413;28;19911;-77
2023/12/09 08:47:27;;;;;;;;;;;11.60;93.90;;;;;;5111586;28;19946;-77
2023/12/09 08:49:53;;;;;;;;;;;11.50;93.90;;;;;;5114881;28;20370;-77
2023/12/09 08:52:20;;;;;;;;;;;11.60;93.90;;;;;;5097351;28;20390;-77
2023/12/09 08:54:45;;;;;;;;;;;11.60;94.00;;;;;;5079825;28;19912;-77
2023/12/09 08:57:11;;;;;;;;;;;11.60;94.00;;;;;;5096754;28;19911;-77
2023/12/09 08:59:36;;;;;;;;;;;11.60;94.00;;;;;;5115567;28;19936;-76
2023/12/09 09:02:02;;;;;;;;;;;11.70;94.00;;;;;;5097136;28;19907;-77
2023/12/09 09:04:27;;;;;;;;;;;11.70;94.00;;;;;;5080745;28;19918;-77
2023/12/09 09:06:53;;;;;;;;;;;11.70;94.00;;;;;;5115373;28;19908;-77
2023/12/09 09:09:19;;;;;;;;;;;11.70;94.00;;;;;;5097016;28;19947;-77
2023/12/09 09:11:44;;;;;;;;;;;11.80;93.90;;;;;;5096880;28;19907;-77
2023/12/09 09:14:10;;;;;;;;;;;11.70;93.90;;;;;;5096730;28;20006;-77
2023/12/09 09:16:35;;;;;;;;;;;11.70;93.90;;;;;;5096614;28;19911;-77
2023/12/09 09:19:01;;;;;;;;;;;11.70;93.80;;;;;;5115400;28;20444;-77
2023/12/09 09:21:26;;;;;;;;;;;11.60;93.80;;;;;;5115055;28;20278;-77
2023/12/09 09:23:52;;;;;;;;;;;11.50;93.70;;;;;;5115305;28;19908;-78
2023/12/09 09:26:18;;;;;;;;;;;11.50;93.80;;;;;;5113038;28;19920;-75
2023/12/09 09:28:43;;;;;;;;;;;11.40;93.80;;;;;;5116773;28;19907;-74
2023/12/09 09:31:12;;;;;;;;;;;11.50;93.90;;;;;;5097692;28;19963;-74
2023/12/09 09:33:37;;;;;;;;;;;11.50;93.90;;;;;;5117150;28;19912;-75
2023/12/09 09:36:03;;;;;;;;;;;11.50;93.90;;;;;;5117240;28;20017;-75
2023/12/09 09:38:28;;;;;;;;;;;11.50;93.90;;;;;;5116448;28;19997;-74
2023/12/09 09:40:55;;;;;;;;;;;11.50;93.90;;;;;;5116159;28;19918;-74
2023/12/09 09:43:22;;;;;;;;;;;11.60;93.90;;;;;;5116572;28;19998;-74
2023/12/09 09:45:48;;;;;;;;;;;11.60;93.90;;;;;;5116775;28;19994;-75
2023/12/09 09:48:16;;;;;;;;;;;11.60;93.90;;;;;;5116628;28;19904;-74
2023/12/09 09:50:44;;;;;;;;;;;11.60;93.90;;;;;;5114782;28;20555;-75
2023/12/09 09:53:12;;;;;;;;;;;11.70;93.90;;;;;;5114796;28;20033;-75
2023/12/09 09:55:39;;;;;;;;;;;11.70;93.90;;;;;;5097790;28;20301;-74
2023/12/09 09:58:05;;;;;;;;;;;11.70;93.90;;;;;;5098056;28;20382;-72
2023/12/09 10:00:30;;;;;;;;;;;11.80;93.90;;;;;;5115176;28;19946;-73
2023/12/09 10:02:56;;;;;;;;;;;11.80;93.90;;;;;;5115535;28;19912;-74
2023/12/09 10:05:22;;;;;;;;;;;11.90;93.90;;;;;;5115256;28;19943;-74
2023/12/09 10:07:47;;;;;;;;;;;11.90;93.90;;;;;;5115114;28;19912;-73
2023/12/09 10:10:14;;;;;;;;;;;12.00;93.90;;;;;;5115629;28;19999;-75
2023/12/09 10:12:40;;;;;;;;;;;12.00;93.90;;;;;;5115901;28;19936;-75
2023/12/09 10:15:06;;;;;;;;;;;12.00;93.90;;;;;;5116124;28;20258;-74
2023/12/09 10:17:32;;;;;;;;;;;12.10;93.90;;;;;;5115616;28;20006;-66
2023/12/09 10:19:58;;;;;;;;;;;12.10;93.90;;;;;;5100252;28;19998;-74
2023/12/09 10:22:27;;;;;;;;;;;12.10;93.80;;;;;;5115444;28;20009;-75
2023/12/09 10:24:53;;;;;;;;;;;12.00;93.70;;;;;;5094958;28;19962;-74
2023/12/09 10:27:20;;;;;;;;;;;12.00;93.80;;;;;;5096646;28;19904;-75
2023/12/09 10:29:45;;;;;;;;;;;11.90;93.80;;;;;;5115863;28;19904;-75
2023/12/09 10:32:12;;;;;;;;;;;11.90;93.80;;;;;;5113586;28;19908;-74
2023/12/09 10:34:38;;;;;;;;;;;11.90;93.80;;;;;;5098844;28;20548;-75
2023/12/09 10:37:04;;;;;;;;;;;11.90;93.80;;;;;;5114990;28;19953;-75
2023/12/09 10:39:31;;;;;;;;;;;11.90;93.80;;;;;;5115238;28;19911;-75
2023/12/09 10:41:56;;;;;;;;;;;11.90;93.80;;;;;;5115271;28;19957;-75
2023/12/09 10:44:22;;;;;;;;;;;11.90;93.80;;;;;;5114616;28;19995;-74
2023/12/09 10:46:48;;;;;;;;;;;12.00;93.80;;;;;;5096870;28;20387;-75
2023/12/09 10:49:13;;;;;;;;;;;12.00;93.80;;;;;;5096216;28;20428;-74
2023/12/09 10:51:39;;;;;;;;;;;12.10;93.80;;;;;;5096801;28;19941;-77
2023/12/09 10:54:05;;;;;;;;;;;12.10;93.80;;;;;;5114683;28;19918;-75
2023/12/09 10:56:30;;;;;;;;;;;12.10;93.80;;;;;;5114689;28;19911;-75
2023/12/09 10:58:56;;;;;;;;;;;12.10;93.80;;;;;;5078051;28;19977;-76
2023/12/09 11:01:22;;;;;;;;;;;12.10;93.80;;;;;;5092916;28;20282;-70
2023/12/09 11:03:48;;;;;;;;;;;12.10;93.80;;;;;;5102549;28;19982;-74
2023/12/09 11:06:15;;;;;;;;;;;12.20;93.80;;;;;;5114860;28;19908;-75
2023/12/09 11:08:41;;;;;;;;;;;12.20;93.80;;;;;;5087344;28;19904;-75
2023/12/09 11:11:07;;;;;;;;;;;12.20;93.80;;;;;;5058226;28;20295;-73
2023/12/09 11:13:34;;;;;;;;;;;12.30;93.80;;;;;;5094124;28;20010;-78
2023/12/09 11:16:17;;;;;;;;;;;12.30;93.80;;;;;;5103674;28;19919;-77
2023/12/09 11:18:52;;;;;;;;;;;12.40;93.80;;;;;;5100599;28;19986;-76
2023/12/09 11:21:23;;;;;;;;;;;12.40;93.80;;;;;;5114453;28;19908;-77
2023/12/09 11:23:50;;;;;;;;;;;12.50;93.80;;;;;;5114198;28;19960;-77
2023/12/09 11:26:16;;;;;;;;;;;12.60;93.80;;;;;;5114380;28;19915;-75
2023/12/09 11:29:01;;;;;;;;;;;12.60;93.80;;;;;;5082532;28;20414;-72
2023/12/09 11:31:40;;;;;;;;;;;12.70;93.80;;;;;;5095284;28;19951;-75
2023/12/09 11:34:06;;;;;;;;;;;12.70;93.70;;;;;;5076862;28;19908;-77
2023/12/09 11:36:35;;;;;;;;;;;12.80;93.70;;;;;;5093970;28;19995;-74
2023/12/09 11:39:02;;;;;;;;;;;12.70;93.60;;;;;;5075199;28;19949;-74
2023/12/09 11:41:28;;;;;;;;;;;12.70;93.60;;;;;;5085329;28;19915;-74
2023/12/09 11:43:55;;;;;;;;;;;12.60;93.50;;;;;;5113683;28;20371;-75
2023/12/09 11:46:21;;;;;;;;;;;12.50;93.60;;;;;;5096351;28;19987;-73
2023/12/09 11:48:50;;;;;;;;;;;12.50;93.50;;;;;;5114383;28;19912;-76
2023/12/09 11:51:16;;;;;;;;;;;12.30;93.50;;;;;;5114099;28;19916;-77
2023/12/09 11:53:55;;;;;;;;;;;12.20;93.50;;;;;;5113711;28;20305;-74
2023/12/09 11:56:20;;;;;;;;;;;12.10;93.60;;;;;;5113083;28;19934;-74
2023/12/09 11:58:46;;;;;;;;;;;12.10;93.70;;;;;;5113478;28;19997;-75
2023/12/09 12:01:11;;;;;;;;;;;12.20;93.80;;;;;;5113136;28;20002;-73
2023/12/09 12:03:37;;;;;;;;;;;12.30;93.90;;;;;;5112688;28;19923;-75
2023/12/09 12:06:03;;;;;;;;;;;12.40;93.80;;;;;;5107646;28;19943;-74
2023/12/09 12:08:29;;;;;;;;;;;12.40;93.80;;;;;;5097876;28;19973;-74
2023/12/09 12:10:54;;;;;;;;;;;12.50;93.80;;;;;;5091898;28;20336;-75
2023/12/09 12:13:20;;;;;;;;;;;12.50;93.70;;;;;;5093443;28;19908;-75
2023/12/09 12:15:45;;;;;;;;;;;12.50;93.70;;;;;;5094198;28;20010;-77
2023/12/09 12:18:11;;;;;;;;;;;12.50;93.70;;;;;;5075122;28;19912;-73
2023/12/09 12:20:36;;;;;;;;;;;12.50;93.60;;;;;;5092536;28;19904;-74
2023/12/09 12:23:02;;;;;;;;;;;12.50;93.70;;;;;;5074146;28;20374;-71
2023/12/09 12:25:28;;;;;;;;;;;12.60;93.80;;;;;;5106816;28;19930;-74
2023/12/09 12:27:55;;;;;;;;;;;12.70;93.80;;;;;;5106377;28;19911;-73
2023/12/09 12:30:21;;;;;;;;;;;12.70;93.80;;;;;;5112975;28;19947;-74
2023/12/09 12:32:54;;;;;;;;;;;12.80;93.80;;;;;;5094475;28;20033;-74
2023/12/09 12:35:21;;;;;;;;;;;12.90;93.80;;;;;;5112967;28;19908;-74
2023/12/09 12:37:46;;;;;;;;;;;12.90;93.70;;;;;;5094624;28;19904;-73
2023/12/09 12:40:12;;;;;;;;;;;13.00;93.70;;;;;;5094162;28;19964;-74
2023/12/09 12:42:38;;;;;;;;;;;13.00;93.70;;;;;;5112727;28;20316;-73
2023/12/09 12:45:07;;;;;;;;;;;13.00;93.70;;;;;;5094872;28;19942;-74
2023/12/09 12:47:33;;;;;;;;;;;13.10;93.80;;;;;;5112283;28;19915;-75
2023/12/09 12:49:58;;;;;;;;;;;13.30;94.00;;;;;;5111573;28;20556;-77
2023/12/09 12:52:25;;;;;;;;;;;13.50;93.90;;;;;;5075913;28;19923;-75
2023/12/09 12:54:50;;;;;;;;;;;13.60;93.80;;;;;;5074088;28;20356;-77
2023/12/09 12:57:16;;;;;;;;;;;13.70;93.70;;;;;;5092632;28;19974;-75
2023/12/09 12:59:41;;;;;;;;;;;13.70;93.70;;;;;;5074123;28;20416;-76
2023/12/09 13:02:07;;;;;;;;;;;13.60;93.60;;;;;;5092301;28;19912;-73
2023/12/09 13:04:32;;;;;;;;;;;13.50;93.60;;;;;;5073830;28;19910;-74
2023/12/09 13:06:58;;;;;;;;;;;13.50;93.70;;;;;;5092035;28;20519;-72
2023/12/09 13:09:24;;;;;;;;;;;13.50;93.70;;;;;;5092338;28;20283;-74
2023/12/09 13:11:49;;;;;;;;;;;13.50;93.70;;;;;;5092064;28;19931;-75
2023/12/09 13:14:15;;;;;;;;;;;13.50;93.70;;;;;;5092001;28;19994;-73
2023/12/09 13:16:40;;;;;;;;;;;13.50;93.70;;;;;;5092039;28;19916;-73
2023/12/09 13:19:06;;;;;;;;;;;13.60;93.80;;;;;;5091657;28;19907;-74
2023/12/09 13:21:31;;;;;;;;;;;13.60;93.80;;;;;;5090324;28;19931;-73
2023/12/09 13:23:57;;;;;;;;;;;13.60;93.80;;;;;;5112863;28;20006;-75
2023/12/09 13:26:22;;;;;;;;;;;13.70;93.80;;;;;;5094181;28;19920;-74
2023/12/09 13:28:48;;;;;;;;;;;13.70;94.00;;;;;;5106815;28;19923;-75
2023/12/09 13:31:15;;;;;;;;;;;13.80;94.00;;;;;;5109726;28;19937;-74
2023/12/09 13:33:40;;;;;;;;;;;13.70;93.80;;;;;;5098746;28;19908;-74
2023/12/09 13:36:06;;;;;;;;;;;13.50;93.60;;;;;;5102109;28;19918;-75
2023/12/09 13:38:32;;;;;;;;;;;13.30;93.70;;;;;;5115763;28;20419;-75
2023/12/09 13:40:57;;;;;;;;;;;13.30;94.00;;;;;;5101740;28;19961;-74
2023/12/09 13:43:23;;;;;;;;;;;13.30;94.20;;;;;;5116813;28;20309;-75
2023/12/09 13:45:48;;;;;;;;;;;13.40;94.10;;;;;;5080917;28;19907;-74
2023/12/09 13:48:14;;;;;;;;;;;13.30;94.10;;;;;;5116601;28;19988;-74
2023/12/09 13:50:39;;;;;;;;;;;13.30;94.10;;;;;;5103710;28;19908;-74
2023/12/09 13:53:06;;;;;;;;;;;13.30;94.10;;;;;;5094642;28;19908;-74
2023/12/09 13:55:32;;;;;;;;;;;13.30;94.10;;;;;;5102432;28;20290;-75
2023/12/09 13:57:57;;;;;;;;;;;13.30;94.20;;;;;;5097601;28;19911;-75
2023/12/09 14:00:23;;;;;;;;;;;13.30;94.20;;;;;;5098094;28;20002;-74
2023/12/09 14:02:48;;;;;;;;;;;13.30;94.20;;;;;;5115569;28;19952;-74
2023/12/09 14:05:14;;;;;;;;;;;13.20;94.00;;;;;;5116351;28;19927;-74
2023/12/09 14:07:40;;;;;;;;;;;13.20;94.00;;;;;;5097647;28;20370;-74
2023/12/09 14:10:06;;;;;;;;;;;13.20;93.90;;;;;;5077698;28;19908;-75